sensor_id;sensor_type;location;lat;lon;timestamp;P1;durP1;ratioP1;P2;durP2;ratioP2
70967;SDS011;58629;48.808;8.820;2022-07-09T00:01:11;1.80;;;1.10;;
70967;SDS011;58629;48.808;8.820;2022-07-09T00:03:36;1.53;;;1.00;;
70967;SDS011;58629;48.808;8.820;2022-07-09T00:06:02;0.87;;;0.83;;
70967;SDS011;58629;48.808;8.820;2022-07-09T00:08:27;1.10;;;0.80;;
70967;SDS011;58629;48.808;8.820;2022-07-09T00:10:53;1.20;;;1.10;;
70967;SDS011;58629;48.808;8.820;2022-07-09T00:13:18;1.03;;;0.80;;
70967;SDS011;58629;48.808;8.820;2022-07-09T00:15:43;0.90;;;0.70;;
70967;SDS011;58629;48.808;8.820;2022-07-09T00:18:09;1.70;;;1.30;;
70967;SDS011;58629;48.808;8.820;2022-07-09T00:20:34;1.27;;;1.00;;
70967;SDS011;58629;48.808;8.820;2022-07-09T00:22:59;1.40;;;1.10;;
70967;SDS011;58629;48.808;8.820;2022-07-09T00:25:24;1.83;;;1.45;;
70967;SDS011;58629;48.808;8.820;2022-07-09T00:28:10;1.63;;;1.30;;
70967;SDS011;58629;48.808;8.820;2022-07-09T00:30:35;3.38;;;1.60;;
70967;SDS011;58629;48.808;8.820;2022-07-09T00:33:01;2.63;;;1.90;;
70967;SDS011;58629;48.808;8.820;2022-07-09T00:35:26;2.33;;;1.97;;
70967;SDS011;58629;48.808;8.820;2022-07-09T00:37:51;2.63;;;1.70;;
70967;SDS011;58629;48.808;8.820;2022-07-09T00:40:16;2.20;;;1.67;;
70967;SDS011;58629;48.808;8.820;2022-07-09T00:42:42;2.47;;;1.70;;
70967;SDS011;58629;48.808;8.820;2022-07-09T00:45:07;2.37;;;1.70;;
70967;SDS011;58629;48.808;8.820;2022-07-09T00:47:32;1.97;;;1.10;;
70967;SDS011;58629;48.808;8.820;2022-07-09T00:49:58;1.73;;;1.23;;
70967;SDS011;58629;48.808;8.820;2022-07-09T00:55:45;1.38;;;0.90;;
70967;SDS011;58629;48.808;8.820;2022-07-09T00:58:13;1.35;;;0.90;;
70967;SDS011;58629;48.808;8.820;2022-07-09T01:00:41;2.25;;;1.20;;
70967;SDS011;58629;48.808;8.820;2022-07-09T01:03:08;0.97;;;0.87;;
70967;SDS011;58629;48.808;8.820;2022-07-09T01:05:34;1.40;;;1.13;;
70967;SDS011;58629;48.808;8.820;2022-07-09T01:08:05;1.08;;;0.90;;
70967;SDS011;58629;48.808;8.820;2022-07-09T01:10:32;2.08;;;1.30;;
70967;SDS011;58629;48.808;8.820;2022-07-09T01:12:58;0.73;;;0.70;;
70967;SDS011;58629;48.808;8.820;2022-07-09T01:15:24;1.17;;;1.07;;
70967;SDS011;58629;48.808;8.820;2022-07-09T01:17:50;1.23;;;1.10;;
70967;SDS011;58629;48.808;8.820;2022-07-09T01:20:23;1.75;;;1.20;;
70967;SDS011;58629;48.808;8.820;2022-07-09T01:22:50;0.90;;;0.70;;
70967;SDS011;58629;48.808;8.820;2022-07-09T01:25:16;1.13;;;0.90;;
70967;SDS011;58629;48.808;8.820;2022-07-09T01:27:43;1.25;;;1.00;;
70967;SDS011;58629;48.808;8.820;2022-07-09T01:30:08;1.27;;;0.97;;
70967;SDS011;58629;48.808;8.820;2022-07-09T01:32:34;1.52;;;1.15;;
70967;SDS011;58629;48.808;8.820;2022-07-09T01:35:00;0.80;;;0.70;;
70967;SDS011;58629;48.808;8.820;2022-07-09T01:37:25;2.40;;;1.03;;
70967;SDS011;58629;48.808;8.820;2022-07-09T01:39:50;1.27;;;0.60;;
70967;SDS011;58629;48.808;8.820;2022-07-09T01:42:16;1.27;;;0.80;;
70967;SDS011;58629;48.808;8.820;2022-07-09T01:44:42;1.10;;;0.80;;
70967;SDS011;58629;48.808;8.820;2022-07-09T01:47:08;1.10;;;0.90;;
70967;SDS011;58629;48.808;8.820;2022-07-09T01:49:33;1.67;;;1.17;;
70967;SDS011;58629;48.808;8.820;2022-07-09T01:51:58;1.67;;;1.33;;
70967;SDS011;58629;48.808;8.820;2022-07-09T01:54:23;1.53;;;0.97;;
70967;SDS011;58629;48.808;8.820;2022-07-09T01:56:49;1.47;;;1.30;;
70967;SDS011;58629;48.808;8.820;2022-07-09T01:59:14;1.47;;;0.97;;
70967;SDS011;58629;48.808;8.820;2022-07-09T02:01:39;0.90;;;0.80;;
70967;SDS011;58629;48.808;8.820;2022-07-09T02:04:04;1.60;;;1.10;;
70967;SDS011;58629;48.808;8.820;2022-07-09T02:06:30;1.57;;;0.97;;
70967;SDS011;58629;48.808;8.820;2022-07-09T02:08:55;0.70;;;0.60;;
70967;SDS011;58629;48.808;8.820;2022-07-09T02:11:20;1.70;;;1.00;;
70967;SDS011;58629;48.808;8.820;2022-07-09T02:13:46;1.50;;;1.10;;
70967;SDS011;58629;48.808;8.820;2022-07-09T02:16:11;2.60;;;2.03;;
70967;SDS011;58629;48.808;8.820;2022-07-09T02:18:36;1.88;;;1.17;;
70967;SDS011;58629;48.808;8.820;2022-07-09T02:21:02;1.43;;;1.10;;
70967;SDS011;58629;48.808;8.820;2022-07-09T02:23:27;0.90;;;0.80;;
70967;SDS011;58629;48.808;8.820;2022-07-09T02:25:52;1.70;;;1.10;;
70967;SDS011;58629;48.808;8.820;2022-07-09T02:28:18;1.57;;;1.13;;
70967;SDS011;58629;48.808;8.820;2022-07-09T02:30:43;1.63;;;1.20;;
70967;SDS011;58629;48.808;8.820;2022-07-09T02:33:08;1.80;;;1.13;;
70967;SDS011;58629;48.808;8.820;2022-07-09T02:35:34;1.90;;;1.10;;
70967;SDS011;58629;48.808;8.820;2022-07-09T02:37:59;1.67;;;1.27;;
70967;SDS011;58629;48.808;8.820;2022-07-09T02:40:24;1.20;;;0.90;;
70967;SDS011;58629;48.808;8.820;2022-07-09T02:42:49;1.23;;;0.90;;
70967;SDS011;58629;48.808;8.820;2022-07-09T02:45:15;1.10;;;0.80;;
70967;SDS011;58629;48.808;8.820;2022-07-09T02:47:40;1.10;;;1.00;;
70967;SDS011;58629;48.808;8.820;2022-07-09T02:50:05;2.40;;;1.60;;
70967;SDS011;58629;48.808;8.820;2022-07-09T02:52:31;1.83;;;1.00;;
70967;SDS011;58629;48.808;8.820;2022-07-09T02:54:56;0.90;;;0.80;;
70967;SDS011;58629;48.808;8.820;2022-07-09T02:57:21;1.57;;;1.00;;
70967;SDS011;58629;48.808;8.820;2022-07-09T02:59:47;1.00;;;0.90;;
70967;SDS011;58629;48.808;8.820;2022-07-09T03:02:12;1.10;;;0.80;;
70967;SDS011;58629;48.808;8.820;2022-07-09T03:04:37;1.90;;;1.10;;
70967;SDS011;58629;48.808;8.820;2022-07-09T03:07:03;1.30;;;1.00;;
70967;SDS011;58629;48.808;8.820;2022-07-09T03:09:28;2.08;;;1.40;;
70967;SDS011;58629;48.808;8.820;2022-07-09T03:11:53;1.63;;;1.10;;
70967;SDS011;58629;48.808;8.820;2022-07-09T03:14:19;1.80;;;1.37;;
70967;SDS011;58629;48.808;8.820;2022-07-09T03:16:44;1.63;;;1.30;;
70967;SDS011;58629;48.808;8.820;2022-07-09T03:19:09;2.30;;;1.70;;
70967;SDS011;58629;48.808;8.820;2022-07-09T03:21:35;2.33;;;1.47;;
70967;SDS011;58629;48.808;8.820;2022-07-09T03:24:00;3.33;;;1.63;;
70967;SDS011;58629;48.808;8.820;2022-07-09T03:26:25;2.57;;;1.30;;
70967;SDS011;58629;48.808;8.820;2022-07-09T03:28:50;1.50;;;1.13;;
70967;SDS011;58629;48.808;8.820;2022-07-09T03:31:16;2.03;;;1.40;;
70967;SDS011;58629;48.808;8.820;2022-07-09T03:33:41;2.08;;;1.40;;
70967;SDS011;58629;48.808;8.820;2022-07-09T03:36:06;1.70;;;1.40;;
70967;SDS011;58629;48.808;8.820;2022-07-09T03:38:32;3.00;;;1.60;;
70967;SDS011;58629;48.808;8.820;2022-07-09T03:40:58;1.45;;;1.05;;
70967;SDS011;58629;48.808;8.820;2022-07-09T03:43:23;1.40;;;1.08;;
70967;SDS011;58629;48.808;8.820;2022-07-09T03:45:48;1.80;;;0.93;;
70967;SDS011;58629;48.808;8.820;2022-07-09T03:48:14;1.15;;;1.00;;
70967;SDS011;58629;48.808;8.820;2022-07-09T03:50:39;2.13;;;1.50;;
70967;SDS011;58629;48.808;8.820;2022-07-09T03:53:04;1.77;;;1.30;;
70967;SDS011;58629;48.808;8.820;2022-07-09T03:55:30;2.30;;;1.50;;
70967;SDS011;58629;48.808;8.820;2022-07-09T03:57:56;2.60;;;2.00;;
70967;SDS011;58629;48.808;8.820;2022-07-09T04:00:21;2.10;;;1.60;;
70967;SDS011;58629;48.808;8.820;2022-07-09T04:02:46;2.10;;;1.60;;
70967;SDS011;58629;48.808;8.820;2022-07-09T04:05:11;1.27;;;1.10;;
70967;SDS011;58629;48.808;8.820;2022-07-09T04:07:37;1.83;;;1.20;;
70967;SDS011;58629;48.808;8.820;2022-07-09T04:10:02;1.37;;;1.10;;
70967;SDS011;58629;48.808;8.820;2022-07-09T04:12:28;1.90;;;1.30;;
70967;SDS011;58629;48.808;8.820;2022-07-09T04:14:53;1.50;;;1.00;;
70967;SDS011;58629;48.808;8.820;2022-07-09T04:17:18;1.63;;;1.07;;
70967;SDS011;58629;48.808;8.820;2022-07-09T04:19:44;1.30;;;0.70;;
70967;SDS011;58629;48.808;8.820;2022-07-09T04:22:09;2.83;;;1.30;;
70967;SDS011;58629;48.808;8.820;2022-07-09T04:24:34;1.50;;;0.87;;
70967;SDS011;58629;48.808;8.820;2022-07-09T04:26:59;1.00;;;0.80;;
70967;SDS011;58629;48.808;8.820;2022-07-09T04:29:25;1.50;;;1.00;;
70967;SDS011;58629;48.808;8.820;2022-07-09T04:31:50;1.40;;;0.90;;
70967;SDS011;58629;48.808;8.820;2022-07-09T04:34:15;1.10;;;1.00;;
70967;SDS011;58629;48.808;8.820;2022-07-09T04:36:41;1.27;;;1.17;;
70967;SDS011;58629;48.808;8.820;2022-07-09T04:39:06;1.10;;;0.70;;
70967;SDS011;58629;48.808;8.820;2022-07-09T04:41:31;1.83;;;1.30;;
70967;SDS011;58629;48.808;8.820;2022-07-09T04:43:57;1.90;;;1.10;;
70967;SDS011;58629;48.808;8.820;2022-07-09T04:46:22;3.23;;;1.60;;
70967;SDS011;58629;48.808;8.820;2022-07-09T04:48:50;1.60;;;1.00;;
70967;SDS011;58629;48.808;8.820;2022-07-09T04:51:16;1.10;;;0.98;;
70967;SDS011;58629;48.808;8.820;2022-07-09T04:53:41;0.97;;;0.80;;
70967;SDS011;58629;48.808;8.820;2022-07-09T04:56:06;1.50;;;0.90;;
70967;SDS011;58629;48.808;8.820;2022-07-09T04:58:32;1.00;;;0.73;;
70967;SDS011;58629;48.808;8.820;2022-07-09T05:00:58;1.77;;;1.20;;
70967;SDS011;58629;48.808;8.820;2022-07-09T05:03:23;0.70;;;0.60;;
70967;SDS011;58629;48.808;8.820;2022-07-09T05:05:49;1.10;;;0.60;;
70967;SDS011;58629;48.808;8.820;2022-07-09T05:08:15;1.10;;;0.80;;
70967;SDS011;58629;48.808;8.820;2022-07-09T05:10:40;3.37;;;1.47;;
70967;SDS011;58629;48.808;8.820;2022-07-09T05:13:05;1.00;;;0.83;;
70967;SDS011;58629;48.808;8.820;2022-07-09T05:15:30;1.30;;;0.90;;
70967;SDS011;58629;48.808;8.820;2022-07-09T05:17:57;1.17;;;1.08;;
70967;SDS011;58629;48.808;8.820;2022-07-09T05:20:23;1.40;;;1.10;;
70967;SDS011;58629;48.808;8.820;2022-07-09T05:22:49;2.10;;;1.27;;
70967;SDS011;58629;48.808;8.820;2022-07-09T05:25:14;4.85;;;3.05;;
70967;SDS011;58629;48.808;8.820;2022-07-09T05:27:40;2.37;;;1.50;;
70967;SDS011;58629;48.808;8.820;2022-07-09T05:30:07;2.77;;;2.00;;
70967;SDS011;58629;48.808;8.820;2022-07-09T05:32:33;2.90;;;1.80;;
70967;SDS011;58629;48.808;8.820;2022-07-09T05:34:58;2.57;;;1.80;;
70967;SDS011;58629;48.808;8.820;2022-07-09T05:37:23;1.90;;;1.70;;
70967;SDS011;58629;48.808;8.820;2022-07-09T05:39:48;1.70;;;1.40;;
70967;SDS011;58629;48.808;8.820;2022-07-09T05:42:14;1.93;;;1.50;;
70967;SDS011;58629;48.808;8.820;2022-07-09T05:44:39;2.03;;;1.40;;
70967;SDS011;58629;48.808;8.820;2022-07-09T05:47:04;1.90;;;1.30;;
70967;SDS011;58629;48.808;8.820;2022-07-09T05:49:29;1.80;;;1.40;;
70967;SDS011;58629;48.808;8.820;2022-07-09T05:51:55;2.50;;;1.73;;
70967;SDS011;58629;48.808;8.820;2022-07-09T05:54:21;3.28;;;1.85;;
70967;SDS011;58629;48.808;8.820;2022-07-09T05:56:47;2.80;;;1.90;;
70967;SDS011;58629;48.808;8.820;2022-07-09T05:59:12;2.57;;;1.60;;
70967;SDS011;58629;48.808;8.820;2022-07-09T06:01:37;2.23;;;1.70;;
70967;SDS011;58629;48.808;8.820;2022-07-09T06:04:07;1.80;;;1.40;;
70967;SDS011;58629;48.808;8.820;2022-07-09T06:06:33;3.13;;;1.90;;
70967;SDS011;58629;48.808;8.820;2022-07-09T06:08:59;4.18;;;2.00;;
70967;SDS011;58629;48.808;8.820;2022-07-09T06:11:24;3.80;;;2.07;;
70967;SDS011;58629;48.808;8.820;2022-07-09T06:13:49;3.50;;;1.80;;
70967;SDS011;58629;48.808;8.820;2022-07-09T06:16:15;2.57;;;1.83;;
70967;SDS011;58629;48.808;8.820;2022-07-09T06:18:40;3.23;;;2.03;;
70967;SDS011;58629;48.808;8.820;2022-07-09T06:21:05;2.83;;;1.67;;
70967;SDS011;58629;48.808;8.820;2022-07-09T06:23:31;1.83;;;1.60;;
70967;SDS011;58629;48.808;8.820;2022-07-09T06:25:56;1.77;;;1.53;;
70967;SDS011;58629;48.808;8.820;2022-07-09T06:28:21;3.37;;;1.80;;
70967;SDS011;58629;48.808;8.820;2022-07-09T06:30:47;2.87;;;1.70;;
70967;SDS011;58629;48.808;8.820;2022-07-09T06:33:12;3.70;;;2.23;;
70967;SDS011;58629;48.808;8.820;2022-07-09T06:35:37;2.28;;;1.90;;
70967;SDS011;58629;48.808;8.820;2022-07-09T06:38:02;1.90;;;1.65;;
70967;SDS011;58629;48.808;8.820;2022-07-09T06:40:28;2.80;;;2.00;;
70967;SDS011;58629;48.808;8.820;2022-07-09T06:42:53;3.10;;;1.90;;
70967;SDS011;58629;48.808;8.820;2022-07-09T06:45:18;1.90;;;1.50;;
70967;SDS011;58629;48.808;8.820;2022-07-09T06:47:44;2.33;;;1.80;;
70967;SDS011;58629;48.808;8.820;2022-07-09T06:50:09;2.33;;;1.80;;
70967;SDS011;58629;48.808;8.820;2022-07-09T06:52:34;3.23;;;1.80;;
70967;SDS011;58629;48.808;8.820;2022-07-09T06:55:00;3.87;;;2.43;;
70967;SDS011;58629;48.808;8.820;2022-07-09T06:57:25;3.77;;;2.00;;
70967;SDS011;58629;48.808;8.820;2022-07-09T06:59:51;2.10;;;1.90;;
70967;SDS011;58629;48.808;8.820;2022-07-09T07:02:16;3.17;;;2.10;;
70967;SDS011;58629;48.808;8.820;2022-07-09T07:04:41;2.20;;;1.60;;
70967;SDS011;58629;48.808;8.820;2022-07-09T07:07:07;2.43;;;1.90;;
70967;SDS011;58629;48.808;8.820;2022-07-09T07:09:32;2.00;;;1.70;;
70967;SDS011;58629;48.808;8.820;2022-07-09T07:11:58;1.53;;;1.40;;
70967;SDS011;58629;48.808;8.820;2022-07-09T07:14:23;1.57;;;1.47;;
70967;SDS011;58629;48.808;8.820;2022-07-09T07:16:49;1.90;;;1.55;;
70967;SDS011;58629;48.808;8.820;2022-07-09T07:19:15;2.83;;;2.03;;
70967;SDS011;58629;48.808;8.820;2022-07-09T07:21:41;2.70;;;2.00;;
70967;SDS011;58629;48.808;8.820;2022-07-09T07:24:07;2.73;;;2.00;;
70967;SDS011;58629;48.808;8.820;2022-07-09T07:26:35;2.28;;;1.90;;
70967;SDS011;58629;48.808;8.820;2022-07-09T07:29:01;3.13;;;1.92;;
70967;SDS011;58629;48.808;8.820;2022-07-09T07:31:26;2.23;;;1.63;;
70967;SDS011;58629;48.808;8.820;2022-07-09T07:33:51;2.23;;;1.77;;
70967;SDS011;58629;48.808;8.820;2022-07-09T07:36:17;1.97;;;1.57;;
70967;SDS011;58629;48.808;8.820;2022-07-09T07:38:42;3.33;;;1.92;;
70967;SDS011;58629;48.808;8.820;2022-07-09T07:41:10;2.60;;;1.70;;
70967;SDS011;58629;48.808;8.820;2022-07-09T07:43:35;1.70;;;1.40;;
70967;SDS011;58629;48.808;8.820;2022-07-09T07:46:00;3.03;;;1.70;;
70967;SDS011;58629;48.808;8.820;2022-07-09T07:48:25;3.53;;;2.10;;
70967;SDS011;58629;48.808;8.820;2022-07-09T07:50:52;2.08;;;1.60;;
70967;SDS011;58629;48.808;8.820;2022-07-09T07:53:18;1.52;;;1.40;;
70967;SDS011;58629;48.808;8.820;2022-07-09T07:55:43;1.77;;;1.20;;
70967;SDS011;58629;48.808;8.820;2022-07-09T07:58:08;1.23;;;1.10;;
70967;SDS011;58629;48.808;8.820;2022-07-09T08:00:34;1.53;;;1.27;;
70967;SDS011;58629;48.808;8.820;2022-07-09T08:02:59;1.87;;;1.57;;
70967;SDS011;58629;48.808;8.820;2022-07-09T08:05:24;2.77;;;1.63;;
70967;SDS011;58629;48.808;8.820;2022-07-09T08:07:50;1.98;;;1.45;;
70967;SDS011;58629;48.808;8.820;2022-07-09T08:10:15;1.50;;;1.20;;
70967;SDS011;58629;48.808;8.820;2022-07-09T08:12:41;6.53;;;1.90;;
70967;SDS011;58629;48.808;8.820;2022-07-09T08:15:06;4.13;;;1.40;;
70967;SDS011;58629;48.808;8.820;2022-07-09T08:17:32;2.17;;;1.60;;
70967;SDS011;58629;48.808;8.820;2022-07-09T08:19:57;1.60;;;1.47;;
70967;SDS011;58629;48.808;8.820;2022-07-09T08:22:22;1.73;;;1.30;;
70967;SDS011;58629;48.808;8.820;2022-07-09T08:24:48;1.87;;;1.40;;
70967;SDS011;58629;48.808;8.820;2022-07-09T08:27:13;1.55;;;1.10;;
70967;SDS011;58629;48.808;8.820;2022-07-09T08:29:38;1.70;;;1.40;;
70967;SDS011;58629;48.808;8.820;2022-07-09T08:32:04;2.13;;;1.37;;
70967;SDS011;58629;48.808;8.820;2022-07-09T08:34:30;2.53;;;1.60;;
70967;SDS011;58629;48.808;8.820;2022-07-09T08:36:55;3.43;;;1.20;;
70967;SDS011;58629;48.808;8.820;2022-07-09T08:39:21;1.30;;;1.20;;
70967;SDS011;58629;48.808;8.820;2022-07-09T08:41:46;3.60;;;1.50;;
70967;SDS011;58629;48.808;8.820;2022-07-09T08:44:12;1.53;;;1.10;;
70967;SDS011;58629;48.808;8.820;2022-07-09T08:46:38;1.75;;;1.40;;
70967;SDS011;58629;48.808;8.820;2022-07-09T08:49:03;4.05;;;2.10;;
70967;SDS011;58629;48.808;8.820;2022-07-09T08:51:31;3.55;;;1.50;;
70967;SDS011;58629;48.808;8.820;2022-07-09T08:53:57;1.80;;;1.27;;
70967;SDS011;58629;48.808;8.820;2022-07-09T08:56:22;1.53;;;1.20;;
70967;SDS011;58629;48.808;8.820;2022-07-09T08:58:48;3.27;;;1.70;;
70967;SDS011;58629;48.808;8.820;2022-07-09T09:01:14;2.10;;;1.43;;
70967;SDS011;58629;48.808;8.820;2022-07-09T09:03:43;2.45;;;1.70;;
70967;SDS011;58629;48.808;8.820;2022-07-09T09:06:10;1.92;;;1.30;;
70967;SDS011;58629;48.808;8.820;2022-07-09T09:08:37;2.03;;;1.40;;
70967;SDS011;58629;48.808;8.820;2022-07-09T09:11:04;2.30;;;1.30;;
70967;SDS011;58629;48.808;8.820;2022-07-09T09:13:31;3.87;;;2.23;;
70967;SDS011;58629;48.808;8.820;2022-07-09T09:16:05;4.25;;;2.40;;
70967;SDS011;58629;48.808;8.820;2022-07-09T09:18:31;9.35;;;4.18;;
70967;SDS011;58629;48.808;8.820;2022-07-09T09:21:05;2.70;;;1.63;;
70967;SDS011;58629;48.808;8.820;2022-07-09T09:23:41;3.03;;;1.80;;
70967;SDS011;58629;48.808;8.820;2022-07-09T09:26:12;3.10;;;1.50;;
70967;SDS011;58629;48.808;8.820;2022-07-09T09:31:27;2.70;;;1.48;;
70967;SDS011;58629;48.808;8.820;2022-07-09T09:33:53;3.78;;;1.52;;
70967;SDS011;58629;48.808;8.820;2022-07-09T09:36:27;1.48;;;1.38;;
70967;SDS011;58629;48.808;8.820;2022-07-09T09:42:15;1.10;;;1.00;;
70967;SDS011;58629;48.808;8.820;2022-07-09T09:44:41;1.40;;;1.30;;
70967;SDS011;58629;48.808;8.820;2022-07-09T09:47:08;1.25;;;1.10;;
70967;SDS011;58629;48.808;8.820;2022-07-09T09:49:34;1.58;;;1.33;;
70967;SDS011;58629;48.808;8.820;2022-07-09T09:54:28;1.77;;;1.45;;
70967;SDS011;58629;48.808;8.820;2022-07-09T09:56:56;1.73;;;1.17;;
70967;SDS011;58629;48.808;8.820;2022-07-09T09:59:23;2.05;;;1.00;;
70967;SDS011;58629;48.808;8.820;2022-07-09T10:01:48;1.80;;;1.20;;
70967;SDS011;58629;48.808;8.820;2022-07-09T10:04:14;1.37;;;1.10;;
70967;SDS011;58629;48.808;8.820;2022-07-09T10:06:43;1.30;;;0.90;;
70967;SDS011;58629;48.808;8.820;2022-07-09T10:09:13;1.38;;;1.20;;
70967;SDS011;58629;48.808;8.820;2022-07-09T10:14:18;1.58;;;1.20;;
70967;SDS011;58629;48.808;8.820;2022-07-09T10:16:55;1.70;;;1.30;;
70967;SDS011;58629;48.808;8.820;2022-07-09T10:19:24;2.38;;;1.33;;
70967;SDS011;58629;48.808;8.820;2022-07-09T10:21:56;2.25;;;1.20;;
70967;SDS011;58629;48.808;8.820;2022-07-09T10:24:31;1.43;;;1.10;;
70967;SDS011;58629;48.808;8.820;2022-07-09T10:27:08;3.22;;;1.20;;
70967;SDS011;58629;48.808;8.820;2022-07-09T10:29:56;0.98;;;0.90;;
70967;SDS011;58629;48.808;8.820;2022-07-09T10:32:23;1.42;;;1.10;;
70967;SDS011;58629;48.808;8.820;2022-07-09T10:34:55;1.33;;;1.10;;
70967;SDS011;58629;48.808;8.820;2022-07-09T10:37:32;1.40;;;1.30;;
70967;SDS011;58629;48.808;8.820;2022-07-09T10:40:09;1.75;;;1.08;;
70967;SDS011;58629;48.808;8.820;2022-07-09T10:42:42;1.70;;;1.40;;
70967;SDS011;58629;48.808;8.820;2022-07-09T10:47:43;3.53;;;1.50;;
70967;SDS011;58629;48.808;8.820;2022-07-09T10:50:11;3.23;;;1.50;;
70967;SDS011;58629;48.808;8.820;2022-07-09T10:52:37;2.10;;;1.27;;
70967;SDS011;58629;48.808;8.820;2022-07-09T10:55:03;1.83;;;1.23;;
70967;SDS011;58629;48.808;8.820;2022-07-09T10:57:28;1.73;;;1.10;;
70967;SDS011;58629;48.808;8.820;2022-07-09T10:59:54;1.90;;;1.20;;
70967;SDS011;58629;48.808;8.820;2022-07-09T11:02:20;1.93;;;1.40;;
70967;SDS011;58629;48.808;8.820;2022-07-09T11:04:49;1.42;;;1.30;;
70967;SDS011;58629;48.808;8.820;2022-07-09T11:07:22;1.43;;;1.10;;
70967;SDS011;58629;48.808;8.820;2022-07-09T11:09:50;1.17;;;1.08;;
70967;SDS011;58629;48.808;8.820;2022-07-09T11:12:20;2.83;;;1.50;;
70967;SDS011;58629;48.808;8.820;2022-07-09T11:14:47;1.40;;;1.27;;
70967;SDS011;58629;48.808;8.820;2022-07-09T11:17:17;2.85;;;1.40;;
70967;SDS011;58629;48.808;8.820;2022-07-09T11:19:45;2.40;;;1.30;;
70967;SDS011;58629;48.808;8.820;2022-07-09T11:22:11;1.95;;;1.20;;
70967;SDS011;58629;48.808;8.820;2022-07-09T11:24:37;1.93;;;1.30;;
70967;SDS011;58629;48.808;8.820;2022-07-09T11:27:06;2.17;;;1.20;;
70967;SDS011;58629;48.808;8.820;2022-07-09T11:29:32;1.83;;;1.38;;
70967;SDS011;58629;48.808;8.820;2022-07-09T11:31:58;1.57;;;1.20;;
70967;SDS011;58629;48.808;8.820;2022-07-09T11:34:24;1.27;;;1.17;;
70967;SDS011;58629;48.808;8.820;2022-07-09T11:36:53;2.45;;;1.25;;
70967;SDS011;58629;48.808;8.820;2022-07-09T11:39:32;1.83;;;1.40;;
70967;SDS011;58629;48.808;8.820;2022-07-09T11:42:01;2.22;;;1.30;;
70967;SDS011;58629;48.808;8.820;2022-07-09T11:44:28;1.17;;;1.08;;
70967;SDS011;58629;48.808;8.820;2022-07-09T11:47:01;1.95;;;1.10;;
70967;SDS011;58629;48.808;8.820;2022-07-09T11:49:36;1.60;;;1.20;;
70967;SDS011;58629;48.808;8.820;2022-07-09T11:52:19;2.03;;;1.30;;
70967;SDS011;58629;48.808;8.820;2022-07-09T11:55:04;1.20;;;1.10;;
70967;SDS011;58629;48.808;8.820;2022-07-09T11:57:31;1.92;;;1.38;;
70967;SDS011;58629;48.808;8.820;2022-07-09T12:00:02;1.60;;;1.08;;
70967;SDS011;58629;48.808;8.820;2022-07-09T12:02:32;1.30;;;1.20;;
70967;SDS011;58629;48.808;8.820;2022-07-09T12:05:06;2.57;;;1.37;;
70967;SDS011;58629;48.808;8.820;2022-07-09T12:07:34;1.52;;;1.13;;
70967;SDS011;58629;48.808;8.820;2022-07-09T12:10:00;1.90;;;1.30;;
70967;SDS011;58629;48.808;8.820;2022-07-09T12:12:33;1.30;;;1.20;;
70967;SDS011;58629;48.808;8.820;2022-07-09T12:15:00;1.20;;;1.10;;
70967;SDS011;58629;48.808;8.820;2022-07-09T12:17:27;2.13;;;1.13;;
70967;SDS011;58629;48.808;8.820;2022-07-09T12:19:54;1.45;;;1.10;;
70967;SDS011;58629;48.808;8.820;2022-07-09T12:22:20;1.52;;;1.40;;
70967;SDS011;58629;48.808;8.820;2022-07-09T12:24:48;2.13;;;1.30;;
70967;SDS011;58629;48.808;8.820;2022-07-09T12:27:14;1.60;;;1.03;;
70967;SDS011;58629;48.808;8.820;2022-07-09T12:29:39;1.52;;;1.20;;
70967;SDS011;58629;48.808;8.820;2022-07-09T12:32:05;2.73;;;1.60;;
70967;SDS011;58629;48.808;8.820;2022-07-09T12:34:30;2.63;;;1.50;;
70967;SDS011;58629;48.808;8.820;2022-07-09T12:36:56;2.33;;;1.60;;
70967;SDS011;58629;48.808;8.820;2022-07-09T12:39:22;1.65;;;1.50;;
70967;SDS011;58629;48.808;8.820;2022-07-09T12:41:47;1.47;;;1.20;;
70967;SDS011;58629;48.808;8.820;2022-07-09T12:44:12;1.77;;;1.20;;
70967;SDS011;58629;48.808;8.820;2022-07-09T12:46:37;2.53;;;1.60;;
70967;SDS011;58629;48.808;8.820;2022-07-09T12:49:03;1.50;;;1.40;;
70967;SDS011;58629;48.808;8.820;2022-07-09T12:51:28;1.63;;;1.40;;
70967;SDS011;58629;48.808;8.820;2022-07-09T12:53:53;1.87;;;1.50;;
70967;SDS011;58629;48.808;8.820;2022-07-09T12:56:19;2.03;;;1.50;;
70967;SDS011;58629;48.808;8.820;2022-07-09T12:58:44;1.70;;;1.60;;
70967;SDS011;58629;48.808;8.820;2022-07-09T13:01:09;2.23;;;1.60;;
70967;SDS011;58629;48.808;8.820;2022-07-09T13:03:35;2.00;;;1.70;;
70967;SDS011;58629;48.808;8.820;2022-07-09T13:06:00;1.70;;;1.60;;
70967;SDS011;58629;48.808;8.820;2022-07-09T13:08:26;1.97;;;1.60;;
70967;SDS011;58629;48.808;8.820;2022-07-09T13:10:51;1.63;;;1.53;;
70967;SDS011;58629;48.808;8.820;2022-07-09T13:13:16;2.03;;;1.50;;
70967;SDS011;58629;48.808;8.820;2022-07-09T13:15:42;2.00;;;1.70;;
70967;SDS011;58629;48.808;8.820;2022-07-09T13:18:08;1.98;;;1.88;;
70967;SDS011;58629;48.808;8.820;2022-07-09T13:20:33;2.87;;;1.90;;
70967;SDS011;58629;48.808;8.820;2022-07-09T13:22:58;2.80;;;1.83;;
70967;SDS011;58629;48.808;8.820;2022-07-09T13:25:24;4.23;;;1.90;;
70967;SDS011;58629;48.808;8.820;2022-07-09T13:27:49;2.20;;;1.97;;
70967;SDS011;58629;48.808;8.820;2022-07-09T13:30:14;2.40;;;2.20;;
70967;SDS011;58629;48.808;8.820;2022-07-09T13:32:45;2.28;;;1.90;;
70967;SDS011;58629;48.808;8.820;2022-07-09T13:35:11;2.85;;;2.22;;
70967;SDS011;58629;48.808;8.820;2022-07-09T13:37:36;2.50;;;2.30;;
70967;SDS011;58629;48.808;8.820;2022-07-09T13:40:02;2.50;;;2.30;;
70967;SDS011;58629;48.808;8.820;2022-07-09T13:42:28;2.90;;;2.25;;
70967;SDS011;58629;48.808;8.820;2022-07-09T13:44:53;3.80;;;2.50;;
70967;SDS011;58629;48.808;8.820;2022-07-09T13:47:19;3.30;;;2.57;;
70967;SDS011;58629;48.808;8.820;2022-07-09T13:49:44;3.77;;;2.37;;
70967;SDS011;58629;48.808;8.820;2022-07-09T13:52:09;3.17;;;2.33;;
70967;SDS011;58629;48.808;8.820;2022-07-09T13:54:35;2.70;;;2.50;;
70967;SDS011;58629;48.808;8.820;2022-07-09T13:57:00;2.70;;;2.27;;
70967;SDS011;58629;48.808;8.820;2022-07-09T13:59:26;2.27;;;2.00;;
70967;SDS011;58629;48.808;8.820;2022-07-09T14:01:52;2.50;;;2.30;;
70967;SDS011;58629;48.808;8.820;2022-07-09T14:04:17;4.07;;;2.80;;
70967;SDS011;58629;48.808;8.820;2022-07-09T14:06:43;3.20;;;2.70;;
70967;SDS011;58629;48.808;8.820;2022-07-09T14:09:08;2.70;;;2.50;;
70967;SDS011;58629;48.808;8.820;2022-07-09T14:11:33;3.00;;;2.70;;
70967;SDS011;58629;48.808;8.820;2022-07-09T14:13:59;2.77;;;2.50;;
70967;SDS011;58629;48.808;8.820;2022-07-09T14:16:25;2.67;;;2.42;;
70967;SDS011;58629;48.808;8.820;2022-07-09T14:18:50;2.60;;;2.40;;
70967;SDS011;58629;48.808;8.820;2022-07-09T14:21:16;5.38;;;2.40;;
70967;SDS011;58629;48.808;8.820;2022-07-09T14:23:42;2.97;;;2.50;;
70967;SDS011;58629;48.808;8.820;2022-07-09T14:26:12;2.53;;;2.30;;
70967;SDS011;58629;48.808;8.820;2022-07-09T14:32:01;2.53;;;2.33;;
70967;SDS011;58629;48.808;8.820;2022-07-09T14:34:26;2.50;;;2.30;;
70967;SDS011;58629;48.808;8.820;2022-07-09T14:36:52;2.70;;;2.50;;
70967;SDS011;58629;48.808;8.820;2022-07-09T14:39:20;2.20;;;2.00;;
70967;SDS011;58629;48.808;8.820;2022-07-09T14:41:48;3.67;;;2.10;;
70967;SDS011;58629;48.808;8.820;2022-07-09T14:44:13;1.80;;;1.70;;
70967;SDS011;58629;48.808;8.820;2022-07-09T14:46:39;2.03;;;1.80;;
70967;SDS011;58629;48.808;8.820;2022-07-09T14:49:05;2.07;;;1.87;;
70967;SDS011;58629;48.808;8.820;2022-07-09T14:51:30;2.42;;;2.20;;
70967;SDS011;58629;48.808;8.820;2022-07-09T14:53:56;2.33;;;2.13;;
70967;SDS011;58629;48.808;8.820;2022-07-09T14:56:21;2.00;;;1.90;;
70967;SDS011;58629;48.808;8.820;2022-07-09T14:58:46;2.33;;;2.13;;
70967;SDS011;58629;48.808;8.820;2022-07-09T15:01:13;2.50;;;2.05;;
70967;SDS011;58629;48.808;8.820;2022-07-09T15:03:38;2.87;;;2.00;;